Time;durP1;ratioP1;P1;durP2;ratioP2;P2;SDS_P1;SDS_P2;PMS_P1;PMS_P2;Temp;Humidity;BMP_temperature;BMP_pressure;BME280_temperature;BME280_humidity;BME280_pressure;Samples;Min_cycle;Max_cycle;Signal;HPM_P1;HPM_P2
2023/08/20 00:02:26;;;;;;;0.20;0.20;;;;;;;20.61;91.99;99674.31;4821823;29;20054;-80
2023/08/20 00:04:55;;;;;;;0.20;0.20;;;;;;;20.70;91.79;99676.13;4822290;29;20077;-80
2023/08/20 00:07:22;;;;;;;0.20;0.20;;;;;;;20.77;91.23;99676.56;4821845;29;20078;-80
2023/08/20 00:09:50;;;;;;;0.20;0.20;;;;;;;20.69;91.12;99674.50;4836884;29;20088;-80
2023/08/20 00:12:17;;;;;;;0.20;0.20;;;;;;;20.54;91.10;99669.19;4822700;29;20112;-80
2023/08/20 00:14:58;;;;;;;0.20;0.20;;;;;;;20.45;92.48;99676.44;4823549;29;20058;-80
2023/08/20 00:17:28;;;;;;;0.20;0.20;;;;;;;20.45;92.42;99673.69;4821843;29;20054;-81
2023/08/20 00:19:55;;;;;;;0.20;0.20;;;;;;;20.50;92.17;99659.91;4837711;29;20046;-81
2023/08/20 00:22:24;;;;;;;0.20;0.20;;;;;;;20.63;92.14;99661.94;4823685;29;20145;-80
2023/08/20 00:24:55;;;;;;;0.20;0.20;;;;;;;20.75;91.56;99665.06;4823070;29;20462;-80
2023/08/20 00:27:22;;;;;;;0.20;0.20;;;;;;;20.74;91.54;99660.72;4821600;29;20050;-81
2023/08/20 00:29:49;;;;;;;0.20;0.20;;;;;;;20.73;91.51;99652.78;4821681;29;20586;-80
2023/08/20 00:32:16;;;;;;;0.20;0.20;;;;;;;20.67;91.93;99646.53;4821503;29;20465;-81
2023/08/20 00:34:44;;;;;;;0.20;0.20;;;;;;;20.67;92.00;99649.28;4816750;29;20064;-81
2023/08/20 00:37:12;;;;;;;0.20;0.20;;;;;;;20.64;91.89;99635.38;4821218;29;20061;-81
2023/08/20 00:39:40;;;;;;;0.20;0.20;;;;;;;20.66;92.07;99635.84;4821753;29;20085;-80
2023/08/20 00:42:08;;;;;;;0.20;0.20;;;;;;;20.74;91.31;99627.81;4806178;29;20059;-81
2023/08/20 00:44:36;;;;;;;0.20;0.20;;;;;;;20.65;91.31;99621.34;4823021;29;20108;-80
2023/08/20 00:47:05;;;;;;;0.20;0.20;;;;;;;20.63;91.87;99630.97;4824271;29;20050;-80
2023/08/20 00:49:32;;;;;;;0.20;0.20;;;;;;;20.48;91.93;99621.81;4822359;29;20570;-81
2023/08/20 00:51:59;;;;;;;0.20;0.20;;;;;;;20.37;92.62;99623.06;4822816;29;20111;-80
2023/08/20 00:54:28;;;;;;;0.20;0.20;;;;;;;20.28;93.50;99628.41;4820710;29;20054;-80
2023/08/20 00:56:55;;;;;;;0.20;0.20;;;;;;;20.30;93.87;99614.38;4822565;29;20052;-79
2023/08/20 00:59:22;;;;;;;0.20;0.20;;;;;;;20.42;93.43;99622.19;4821142;29;20081;-78
2023/08/20 01:01:51;;;;;;;0.20;0.20;;;;;;;20.48;92.67;99621.00;4836141;29;20137;-80
2023/08/20 01:04:19;;;;;;;0.30;0.30;;;;;;;20.47;93.20;99622.13;4822077;29;20416;-80
2023/08/20 01:06:55;;;;;;;0.20;0.20;;;;;;;20.46;93.21;99623.22;4806340;29;20530;-80
2023/08/20 01:09:51;;;;;;;0.20;0.20;;;;;;;20.45;92.68;99622.41;4835840;29;20103;-79
2023/08/20 01:12:19;;;;;;;0.20;0.20;;;;;;;20.24;92.40;99621.88;4836085;29;20066;-80
2023/08/20 01:14:46;;;;;;;0.20;0.20;;;;;;;20.04;93.28;99631.16;4821036;29;20149;-80
2023/08/20 01:17:14;;;;;;;0.20;0.20;;;;;;;19.87;94.09;99636.28;4836081;29;20132;-79
2023/08/20 01:19:41;;;;;;;0.20;0.20;;;;;;;19.73;95.14;99633.41;4820900;29;20425;-80
2023/08/20 01:22:59;;;;;;;0.30;0.30;;;;;;;19.61;96.41;99630.22;4835940;29;20179;-80
2023/08/20 01:25:30;;;;;;;0.20;0.20;;;;;;;19.46;97.93;99634.72;4752959;30;20468;-81
2023/08/20 01:28:19;;;;;;;0.20;0.20;;;;;;;19.40;99.11;99641.38;4751181;30;20052;-80
2023/08/20 01:30:47;;;;;;;0.20;0.20;;;;;;;19.25;100.00;99636.84;4751132;30;20138;-80
2023/08/20 01:33:14;;;;;;;0.20;0.20;;;;;;;19.16;100.00;99635.00;4765762;30;20048;-80
2023/08/20 01:35:42;;;;;;;0.20;0.20;;;;;;;19.02;100.00;99624.72;4765548;30;20051;-80
2023/08/20 01:38:15;;;;;;;0.30;0.30;;;;;;;18.94;100.00;99644.47;4765469;30;20056;-81
2023/08/20 01:40:42;;;;;;;0.20;0.20;;;;;;;18.79;100.00;99636.38;4736031;30;20052;-80
2023/08/20 01:43:10;;;;;;;0.20;0.20;;;;;;;18.65;100.00;99618.94;4735418;30;20056;-80
2023/08/20 01:45:37;;;;;;;0.30;0.30;;;;;;;18.58;100.00;99641.94;4750574;30;20063;-80
2023/08/20 01:48:05;;;;;;;0.30;0.30;;;;;;;18.54;100.00;99629.13;4750822;30;20062;-80
2023/08/20 01:50:34;;;;;;;0.30;0.30;;;;;;;18.45;100.00;99634.34;4751026;30;20056;-79
2023/08/20 01:53:03;;;;;;;0.30;0.30;;;;;;;18.47;100.00;99645.81;4765560;30;20578;-79
2023/08/20 01:55:30;;;;;;;0.30;0.30;;;;;;;18.40;100.00;99642.56;4765319;30;20485;-80
2023/08/20 01:57:59;;;;;;;0.30;0.30;;;;;;;18.47;100.00;99648.53;4765670;30;20567;-79
2023/08/20 02:00:27;;;;;;;0.30;0.30;;;;;;;18.45;100.00;99652.66;4765345;30;20055;-80
2023/08/20 02:02:57;;;;;;;0.30;0.30;;;;;;;18.48;100.00;99647.44;4815678;29;20089;-79
2023/08/20 02:05:25;;;;;;;0.30;0.30;;;;;;;18.56;100.00;99655.06;4807760;29;20058;-80
2023/08/20 02:07:53;;;;;;;0.30;0.30;;;;;;;18.65;100.00;99651.72;4808914;29;20529;-79
2023/08/20 02:10:21;;;;;;;0.30;0.30;;;;;;;18.72;100.00;99650.31;4823439;29;20057;-80
2023/08/20 02:12:48;;;;;;;0.30;0.30;;;;;;;18.74;100.00;99645.38;4824831;29;20080;-81
2023/08/20 02:15:16;;;;;;;0.30;0.30;;;;;;;18.79;100.00;99636.38;4824823;29;20046;-81
2023/08/20 02:17:43;;;;;;;0.30;0.30;;;;;;;18.84;100.00;99630.88;4793638;29;20054;-79
2023/08/20 02:20:11;;;;;;;0.30;0.30;;;;;;;18.82;100.00;99633.88;4824459;29;20065;-80
2023/08/20 02:22:38;;;;;;;0.30;0.30;;;;;;;18.77;100.00;99636.66;4823325;29;20054;-80
2023/08/20 02:25:06;;;;;;;0.20;0.20;;;;;;;18.73;100.00;99632.81;4823571;29;20639;-79
2023/08/20 02:27:33;;;;;;;0.30;0.30;;;;;;;18.68;100.00;99635.56;4824384;29;20146;-81
2023/08/20 02:30:01;;;;;;;0.30;0.30;;;;;;;18.73;100.00;99629.25;4808537;29;20058;-81
2023/08/20 02:32:33;;;;;;;0.30;0.30;;;;;;;18.80;100.00;99625.13;4824023;29;20088;-80
2023/08/20 02:35:00;;;;;;;0.30;0.30;;;;;;;18.84;100.00;99633.59;4824621;29;20137;-80
2023/08/20 02:37:30;;;;;;;0.30;0.30;;;;;;;18.87;100.00;99627.56;4823170;29;20426;-80
2023/08/20 02:39:57;;;;;;;0.30;0.30;;;;;;;18.87;100.00;99643.97;4808256;29;20051;-81
2023/08/20 02:42:24;;;;;;;0.30;0.30;;;;;;;18.91;100.00;99645.03;4824081;29;20189;-81
2023/08/20 02:44:51;;;;;;;0.30;0.30;;;;;;;18.99;100.00;99647.16;4824351;29;20100;-80
2023/08/20 02:47:18;;;;;;;0.30;0.30;;;;;;;19.07;100.00;99647.66;4823862;29;20058;-81
2023/08/20 02:49:46;;;;;;;0.30;0.30;;;;;;;19.07;100.00;99648.47;4824193;29;20062;-80
2023/08/20 02:52:13;;;;;;;0.30;0.30;;;;;;;19.10;100.00;99647.91;4823232;29;20058;-81
2023/08/20 02:54:40;;;;;;;0.30;0.30;;;;;;;19.18;100.00;99646.47;4793268;29;20145;-80
2023/08/20 02:57:08;;;;;;;0.30;0.30;;;;;;;19.26;100.00;99640.38;4824441;29;20058;-81
2023/08/20 02:59:35;;;;;;;0.30;0.30;;;;;;;19.36;100.00;99647.69;4808028;29;20050;-81
2023/08/20 03:02:03;;;;;;;0.30;0.30;;;;;;;19.45;100.00;99646.78;4823011;29;20046;-80
2023/08/20 03:04:33;;;;;;;0.30;0.30;;;;;;;19.47;100.00;99657.44;4807526;29;20078;-80
2023/08/20 03:07:00;;;;;;;0.30;0.30;;;;;;;19.53;100.00;99656.31;4823590;29;20056;-80
2023/08/20 03:09:27;;;;;;;0.30;0.30;;;;;;;19.65;100.00;99658.66;4823608;29;20065;-81
2023/08/20 03:11:55;;;;;;;0.30;0.30;;;;;;;19.75;100.00;99655.88;4823118;29;20054;-82
2023/08/20 03:14:22;;;;;;;0.30;0.30;;;;;;;19.88;100.00;99668.06;4823480;29;20149;-81
2023/08/20 03:16:53;;;;;;;0.30;0.30;;;;;;;19.80;99.58;99665.91;4824328;29;20465;-81
2023/08/20 03:19:20;;;;;;;0.30;0.30;;;;;;;19.72;99.86;99681.06;4808535;29;20414;-80
2023/08/20 03:21:47;;;;;;;0.30;0.30;;;;;;;19.56;100.00;99676.81;4808984;29;20490;-80
2023/08/20 03:24:15;;;;;;;0.30;0.30;;;;;;;19.46;100.00;99678.53;4807761;29;20431;-80
2023/08/20 03:26:42;;;;;;;0.30;0.30;;;;;;;19.30;99.99;99668.81;4822854;29;20046;-78
2023/08/20 03:29:09;;;;;;;0.30;0.30;;;;;;;19.29;99.45;99678.13;4792436;29;20069;-79
2023/08/20 03:31:39;;;;;;;0.30;0.30;;;;;;;18.89;100.00;99688.25;4804429;29;20495;-83
2023/08/20 03:34:08;;;;;;;0.30;0.30;;;;;;;18.35;100.00;99675.38;4785191;29;20162;-83
2023/08/20 03:36:36;;;;;;;0.30;0.30;;;;;;;18.14;100.00;99661.78;4823020;29;20084;-81
2023/08/20 03:39:04;;;;;;;0.30;0.30;;;;;;;18.09;100.00;99667.28;4823263;29;20060;-81
2023/08/20 03:41:31;;;;;;;0.30;0.30;;;;;;;18.02;100.00;99661.28;4823218;29;20051;-81
2023/08/20 03:43:58;;;;;;;0.30;0.30;;;;;;;17.97;100.00;99667.56;4792447;29;20113;-82
2023/08/20 03:46:25;;;;;;;0.30;0.30;;;;;;;17.89;100.00;99665.41;4792358;29;20388;-81
2023/08/20 03:48:53;;;;;;;0.30;0.30;;;;;;;17.87;100.00;99650.41;4807399;29;20143;-82
2023/08/20 03:51:21;;;;;;;0.30;0.30;;;;;;;17.81;100.00;99646.06;4807143;29;20522;-83
2023/08/20 03:53:51;;;;;;;0.30;0.30;;;;;;;17.82;100.00;99634.84;4829661;29;20066;-82
2023/08/20 03:56:18;;;;;;;0.30;0.30;;;;;;;17.89;100.00;99640.03;4840743;29;20307;-84
2023/08/20 03:58:45;;;;;;;0.30;0.30;;;;;;;17.89;100.00;99661.88;4841299;29;20153;-83
2023/08/20 04:01:13;;;;;;;0.30;0.30;;;;;;;17.70;100.00;99656.97;4842008;29;20054;-81
2023/08/20 04:03:42;;;;;;;0.30;0.30;;;;;;;17.71;100.00;99649.59;4841830;29;20058;-83
2023/08/20 04:06:09;;;;;;;0.30;0.30;;;;;;;17.75;100.00;99645.22;4825681;29;20053;-82
2023/08/20 04:08:36;;;;;;;0.30;0.30;;;;;;;17.76;100.00;99647.66;4840455;29;20057;-81
2023/08/20 04:11:04;;;;;;;0.30;0.30;;;;;;;17.82;100.00;99656.69;4840601;29;20430;-82
2023/08/20 04:13:33;;;;;;;0.30;0.30;;;;;;;17.75;100.00;99661.59;4840082;29;20053;-82
2023/08/20 04:16:02;;;;;;;0.30;0.30;;;;;;;17.63;100.00;99640.06;4840744;29;20054;-84
2023/08/20 04:18:29;;;;;;;0.30;0.30;;;;;;;17.65;100.00;99624.22;4840476;29;20046;-83
2023/08/20 04:20:57;;;;;;;0.30;0.30;;;;;;;17.61;100.00;99628.59;4841884;29;20053;-83
2023/08/20 04:23:25;;;;;;;0.30;0.30;;;;;;;17.63;100.00;99626.41;4825365;29;20111;-82
2023/08/20 04:25:52;;;;;;;0.30;0.30;;;;;;;17.54;100.00;99628.03;4841155;29;20123;-82
2023/08/20 04:28:19;;;;;;;0.30;0.30;;;;;;;17.54;100.00;99633.50;4824238;29;20062;-82
2023/08/20 04:30:48;;;;;;;0.30;0.30;;;;;;;17.50;100.00;99624.25;4824258;29;20058;-83
2023/08/20 04:33:15;;;;;;;0.30;0.30;;;;;;;17.46;100.00;99615.78;4816549;29;20050;-82
2023/08/20 04:35:45;;;;;;;0.30;0.30;;;;;;;17.39;100.00;99608.97;4819224;29;20050;-83
2023/08/20 04:38:12;;;;;;;0.30;0.30;;;;;;;17.41;100.00;99615.78;4831811;29;20152;-81
2023/08/20 04:40:40;;;;;;;0.30;0.30;;;;;;;17.39;100.00;99617.16;4816484;29;20107;-82
2023/08/20 04:43:10;;;;;;;0.30;0.30;;;;;;;17.43;100.00;99608.16;4830300;29;20099;-82
2023/08/20 04:45:37;;;;;;;0.30;0.30;;;;;;;17.46;100.00;99620.44;4815469;29;20054;-81
2023/08/20 04:48:05;;;;;;;0.30;0.30;;;;;;;17.51;100.00;99620.41;4816461;29;20103;-81
2023/08/20 04:50:32;;;;;;;0.30;0.30;;;;;;;17.55;100.00;99618.78;4799598;29;20411;-81
2023/08/20 04:53:00;;;;;;;0.40;0.40;;;;;;;17.60;100.00;99607.88;4830219;29;20111;-83
2023/08/20 04:55:28;;;;;;;0.30;0.30;;;;;;;17.72;100.00;99602.91;4829059;29;20058;-82
2023/08/20 04:57:57;;;;;;;0.30;0.30;;;;;;;17.79;100.00;99601.81;4825079;29;20054;-82
2023/08/20 05:00:26;;;;;;;0.30;0.30;;;;;;;17.79;100.00;99615.44;4824755;29;20053;-81
2023/08/20 05:03:03;;;;;;;0.30;0.30;;;;;;;17.76;100.00;99620.38;4837283;29;20099;-82
2023/08/20 05:05:32;;;;;;;0.30;0.30;;;;;;;17.72;100.00;99608.38;4822589;29;20053;-82
2023/08/20 05:07:59;;;;;;;0.40;0.40;;;;;;;17.71;100.00;99609.47;4835970;29;20410;-83
2023/08/20 05:10:26;;;;;;;0.30;0.30;;;;;;;17.82;100.00;99609.47;4836461;29;20054;-82
2023/08/20 05:12:55;;;;;;;0.30;0.30;;;;;;;17.86;100.00;99603.16;4838681;29;20074;-82
2023/08/20 05:15:22;;;;;;;0.40;0.40;;;;;;;17.89;100.00;99599.06;4832614;29;20047;-82
2023/08/20 05:17:50;;;;;;;0.30;0.30;;;;;;;17.94;100.00;99591.66;4816291;29;20057;-82
2023/08/20 05:20:21;;;;;;;0.40;0.40;;;;;;;17.99;100.00;99585.38;4821319;29;20152;-84
2023/08/20 05:22:48;;;;;;;0.40;0.40;;;;;;;18.09;100.00;99595.44;4823989;29;20145;-82
2023/08/20 05:25:15;;;;;;;0.40;0.40;;;;;;;18.17;100.00;99573.00;4838264;29;20142;-82
2023/08/20 05:27:43;;;;;;;0.30;0.30;;;;;;;18.13;100.00;99574.69;4829634;29;20514;-81
2023/08/20 05:30:10;;;;;;;0.30;0.30;;;;;;;18.19;100.00;99574.34;4838942;29;20057;-82
2023/08/20 05:32:38;;;;;;;0.40;0.40;;;;;;;18.25;100.00;99579.78;4823860;29;20054;-82
2023/08/20 05:35:06;;;;;;;0.40;0.40;;;;;;;18.24;100.00;99561.78;4823930;29;20058;-83
2023/08/20 05:37:37;;;;;;;0.30;0.30;;;;;;;18.22;100.00;99555.78;4823463;29;20509;-82
2023/08/20 05:40:05;;;;;;;0.30;0.30;;;;;;;18.17;100.00;99559.34;4841635;29;20053;-84
2023/08/20 05:42:35;;;;;;;0.38;0.38;;;;;;;18.25;100.00;99561.47;4827405;29;20497;-87
2023/08/20 05:45:06;;;;;;;0.30;0.30;;;;;;;18.35;100.00;99544.22;4842885;29;20050;-80
2023/08/20 05:47:33;;;;;;;0.30;0.30;;;;;;;18.42;100.00;99545.53;4842901;29;20141;-81
2023/08/20 05:50:01;;;;;;;0.30;0.30;;;;;;;18.45;100.00;99549.63;4842978;29;20089;-81
2023/08/20 05:52:29;;;;;;;0.35;0.35;;;;;;;18.45;100.00;99544.16;4842355;29;20071;-82
2023/08/20 05:54:56;;;;;;;0.30;0.30;;;;;;;18.49;100.00;99539.75;4843649;29;20579;-84
2023/08/20 05:57:23;;;;;;;0.30;0.30;;;;;;;18.61;100.00;99526.56;4841473;29;20053;-83
2023/08/20 05:59:50;;;;;;;0.30;0.30;;;;;;;18.77;100.00;99524.53;4827438;29;20053;-85
2023/08/20 06:02:18;;;;;;;0.30;0.30;;;;;;;18.90;100.00;99528.53;4826861;29;20080;-84
2023/08/20 06:04:45;;;;;;;0.30;0.30;;;;;;;19.10;100.00;99522.06;4842518;29;20046;-82
2023/08/20 06:07:15;;;;;;;0.40;0.40;;;;;;;19.23;100.00;99520.56;4843495;29;20065;-79
2023/08/20 06:09:45;;;;;;;0.30;0.30;;;;;;;19.38;100.00;99523.16;4812454;29;20057;-80
2023/08/20 06:12:13;;;;;;;0.30;0.30;;;;;;;19.54;100.00;99526.53;4845562;29;20050;-79
2023/08/20 06:14:45;;;;;;;0.30;0.30;;;;;;;19.61;100.00;99524.25;4844876;29;20050;-80
2023/08/20 06:17:15;;;;;;;0.30;0.30;;;;;;;19.70;100.00;99530.75;4813223;29;20117;-78
2023/08/20 06:19:42;;;;;;;0.30;0.30;;;;;;;19.74;100.00;99530.97;4840695;29;20506;-81
2023/08/20 06:22:10;;;;;;;0.30;0.30;;;;;;;19.74;100.00;99517.28;4842892;29;20057;-80
2023/08/20 06:24:39;;;;;;;0.30;0.30;;;;;;;19.78;100.00;99531.22;4841951;29;20434;-80
2023/08/20 06:27:06;;;;;;;0.30;0.30;;;;;;;19.80;100.00;99524.34;4841172;29;20138;-81
2023/08/20 06:29:33;;;;;;;0.30;0.30;;;;;;;19.90;100.00;99517.91;4842834;29;20148;-81
2023/08/20 06:32:00;;;;;;;0.30;0.30;;;;;;;19.95;100.00;99528.00;4844223;29;20062;-79
2023/08/20 06:34:28;;;;;;;0.30;0.30;;;;;;;19.96;100.00;99515.94;4810042;29;20081;-79
2023/08/20 06:36:55;;;;;;;0.30;0.30;;;;;;;19.90;100.00;99520.66;4833674;29;20049;-79
2023/08/20 06:39:23;;;;;;;0.30;0.30;;;;;;;20.11;100.00;99526.69;4841159;29;20063;-79
2023/08/20 06:41:50;;;;;;;0.30;0.30;;;;;;;20.24;100.00;99528.69;4825722;29;20069;-78
2023/08/20 06:44:20;;;;;;;0.30;0.30;;;;;;;20.30;100.00;99526.69;4841137;29;20149;-79
2023/08/20 06:46:48;;;;;;;0.30;0.30;;;;;;;20.34;100.00;99517.59;4841992;29;20516;-80
2023/08/20 06:49:15;;;;;;;0.30;0.30;;;;;;;20.49;100.00;99526.69;4840712;29;20066;-80
2023/08/20 06:51:43;;;;;;;0.30;0.30;;;;;;;20.63;100.00;99530.31;4824447;29;20513;-79
2023/08/20 06:54:15;;;;;;;0.30;0.30;;;;;;;20.80;100.00;99529.78;4842107;29;20054;-79
2023/08/20 06:56:42;;;;;;;0.30;0.30;;;;;;;20.94;100.00;99538.88;4820156;29;20190;-80
2023/08/20 06:59:10;;;;;;;0.30;0.30;;;;;;;21.07;99.90;99544.72;4841078;29;20081;-79
2023/08/20 07:01:37;;;;;;;0.30;0.30;;;;;;;21.08;98.93;99538.91;4840914;29;20157;-79
2023/08/20 07:04:06;;;;;;;0.30;0.30;;;;;;;21.11;96.86;99538.31;4832439;29;20046;-80
2023/08/20 07:06:33;;;;;;;0.30;0.30;;;;;;;21.22;95.43;99536.22;4831931;29;20060;-78
2023/08/20 07:09:00;;;;;;;0.30;0.30;;;;;;;21.13;93.37;99527.03;4833663;29;20061;-80
2023/08/20 07:11:28;;;;;;;0.30;0.30;;;;;;;21.20;93.94;99520.03;4832871;29;20058;-80
2023/08/20 07:14:00;;;;;;;0.30;0.30;;;;;;;21.40;94.63;99512.56;4830886;29;20058;-79
2023/08/20 07:16:27;;;;;;;0.30;0.30;;;;;;;21.59;95.22;99516.03;4832243;29;20564;-78
2023/08/20 07:18:54;;;;;;;0.30;0.30;;;;;;;21.75;93.21;99516.56;4831376;29;20061;-80
2023/08/20 07:21:21;;;;;;;0.30;0.30;;;;;;;21.75;92.36;99515.72;4822167;29;20054;-80
2023/08/20 07:23:49;;;;;;;0.30;0.30;;;;;;;21.73;91.11;99515.22;4841940;29;20141;-79
2023/08/20 07:26:16;;;;;;;0.30;0.30;;;;;;;21.58;91.06;99514.41;4841978;29;20061;-80
2023/08/20 07:29:01;;;;;;;0.30;0.30;;;;;;;21.56;90.99;99508.41;4840804;29;20102;-80
2023/08/20 07:31:36;;;;;;;0.30;0.30;;;;;;;21.63;92.14;99503.31;4839574;29;20057;-82
2023/08/20 07:34:04;;;;;;;0.30;0.30;;;;;;;21.70;90.81;99507.56;4840702;29;20053;-81
2023/08/20 07:36:35;;;;;;;0.30;0.30;;;;;;;21.59;90.03;99507.78;4841112;29;20134;-80
2023/08/20 07:39:03;;;;;;;0.30;0.30;;;;;;;21.60;90.48;99511.38;4841454;29;20054;-80
2023/08/20 07:41:33;;;;;;;0.30;0.30;;;;;;;21.65;91.32;99497.53;4824309;29;20429;-80
2023/08/20 07:44:01;;;;;;;0.25;0.25;;;;;;;21.79;89.90;99511.25;4841973;29;20448;-79
2023/08/20 07:46:29;;;;;;;0.30;0.30;;;;;;;21.80;88.54;99513.69;4827168;29;20050;-80
2023/08/20 07:49:02;;;;;;;0.30;0.30;;;;;;;21.93;88.61;99508.50;4841057;29;20742;-80
2023/08/20 07:51:29;;;;;;;0.30;0.30;;;;;;;22.21;88.19;99501.03;4840654;29;20434;-79
2023/08/20 07:53:58;;;;;;;0.30;0.30;;;;;;;22.41;85.25;99506.06;4840259;29;20065;-80
2023/08/20 07:56:31;;;;;;;0.30;0.30;;;;;;;22.50;84.35;99498.69;4839511;29;20537;-79
2023/08/20 07:58:58;;;;;;;0.30;0.30;;;;;;;22.85;82.79;99509.94;4838402;29;20485;-81
2023/08/20 08:01:25;;;;;;;0.30;0.30;;;;;;;23.20;79.09;99507.41;4824169;29;20050;-80
2023/08/20 08:03:53;;;;;;;0.30;0.30;;;;;;;23.29;77.07;99486.22;4840701;29;20054;-81
2023/08/20 08:06:23;;;;;;;0.30;0.30;;;;;;;23.56;75.63;99496.22;4836139;29;20050;-80
2023/08/20 08:08:56;;;;;;;;;;;;;;;23.86;75.45;99491.00;4840701;29;20487;-79
2023/08/20 08:11:24;;;;;;;0.30;0.30;;;;;;;23.93;74.10;99490.53;4840682;29;19951;-79
2023/08/20 08:13:51;;;;;;;0.30;0.30;;;;;;;24.20;73.20;99475.63;4839523;29;20057;-80
2023/08/20 08:16:20;;;;;;;0.30;0.30;;;;;;;24.57;71.98;99479.69;4809162;29;20085;-79
2023/08/20 08:18:47;;;;;;;0.32;0.32;;;;;;;24.75;70.99;99477.72;4839712;29;20426;-79
2023/08/20 08:21:14;;;;;;;0.30;0.30;;;;;;;24.87;69.41;99477.88;4834831;29;20476;-79
2023/08/20 08:23:44;;;;;;;0.35;0.35;;;;;;;25.13;67.46;99467.88;4840876;29;20148;-79
2023/08/20 08:37:20;;;;;;;0.30;0.30;;;;;;;26.64;58.62;99442.22;5149112;27;20127;-82
2023/08/20 08:39:47;;;;;;;0.30;0.30;;;;;;;27.01;57.52;99439.53;5093676;28;20126;-82
2023/08/20 08:42:15;;;;;;;0.30;0.30;;;;;;;27.15;57.14;99451.09;5128694;28;20044;-82
2023/08/20 08:44:43;;;;;;;0.30;0.30;;;;;;;27.29;57.23;99450.78;5110270;28;20448;-82
2023/08/20 08:47:11;;;;;;;0.30;0.30;;;;;;;27.74;56.72;99452.63;5110180;28;20048;-81
2023/08/20 08:49:38;;;;;;;0.30;0.30;;;;;;;27.82;55.76;99445.38;5110275;28;20059;-82
2023/08/20 08:52:07;;;;;;;0.32;0.32;;;;;;;27.72;55.27;99434.72;5128098;28;20409;-82
2023/08/20 08:54:35;;;;;;;0.40;0.40;;;;;;;27.77;55.77;99445.56;5128126;28;20043;-81
2023/08/20 08:57:03;;;;;;;0.38;0.38;;;;;;;28.19;54.70;99454.41;5127926;28;20551;-82
2023/08/20 08:59:31;;;;;;;0.30;0.30;;;;;;;27.98;54.83;99446.28;5128202;28;20134;-82
2023/08/20 09:01:58;;;;;;;0.30;0.30;;;;;;;26.82;58.04;99436.50;5128220;28;20047;-81
2023/08/20 09:04:25;;;;;;;0.40;0.40;;;;;;;27.42;56.29;99454.38;5109956;28;20043;-82
2023/08/20 09:06:55;;;;;;;0.40;0.40;;;;;;;27.99;55.91;99461.75;5127736;28;20062;-82
2023/08/20 09:09:22;;;;;;;0.32;0.32;;;;;;;27.86;54.38;99441.53;5127897;28;20506;-82
2023/08/20 09:11:49;;;;;;;0.40;0.40;;;;;;;28.29;54.12;99455.88;5127544;28;20039;-82
2023/08/20 09:14:27;;;;;;;0.40;0.40;;;;;;;28.88;52.68;99446.03;5127840;28;20138;-82
2023/08/20 09:16:59;;;;;;;0.40;0.40;;;;;;;29.13;51.26;99450.28;5109216;28;20390;-81
2023/08/20 09:19:35;;;;;;;0.30;0.30;;;;;;;29.44;50.60;99445.88;5110180;28;20102;-82
2023/08/20 09:22:02;;;;;;;0.40;0.40;;;;;;;29.46;50.01;99435.22;5127993;28;20550;-81
2023/08/20 09:24:38;;;;;;;0.40;0.40;;;;;;;29.73;49.87;99433.50;5109760;28;20047;-82
2023/08/20 09:27:06;;;;;;;0.30;0.30;;;;;;;29.63;49.04;99442.38;5108646;28;20097;-82
2023/08/20 09:29:35;;;;;;;0.30;0.30;;;;;;;29.09;51.59;99431.91;5106966;28;20518;-82
2023/08/20 09:32:03;;;;;;;0.30;0.30;;;;;;;28.69;52.41;99416.19;5088772;28;20052;-83
2023/08/20 09:34:38;;;;;;;0.30;0.30;;;;;;;29.11;51.23;99418.47;5088272;28;20077;-83
2023/08/20 09:37:16;;;;;;;0.30;0.30;;;;;;;29.15;51.14;99417.41;5099595;28;20070;-83
2023/08/20 09:39:44;;;;;;;0.30;0.30;;;;;;;29.22;50.85;99408.44;5093088;28;20078;-82
2023/08/20 09:42:12;;;;;;;0.30;0.30;;;;;;;29.22;50.28;99404.84;5093196;28;20094;-83
2023/08/20 09:44:41;;;;;;;0.30;0.30;;;;;;;29.12;50.51;99392.31;5092780;28;20063;-82
2023/08/20 09:47:13;;;;;;;0.30;0.30;;;;;;;28.99;51.59;99396.28;5093229;28;20418;-82
2023/08/20 09:49:48;;;;;;;0.20;0.20;;;;;;;28.79;51.55;99404.56;5092919;28;20082;-83
2023/08/20 09:52:25;;;;;;;0.30;0.30;;;;;;;28.72;51.88;99394.06;5074889;28;20698;-83
2023/08/20 09:55:02;;;;;;;0.20;0.20;;;;;;;28.18;52.71;99396.50;5075228;28;20105;-82
2023/08/20 09:57:37;;;;;;;0.20;0.20;;;;;;;27.71;54.16;99408.97;5092935;28;20139;-82
2023/08/20 10:00:11;;;;;;;0.20;0.20;;;;;;;27.32;55.28;99399.41;5075271;28;20077;-83
2023/08/20 10:02:41;;;;;;;0.20;0.20;;;;;;;27.21;56.11;99397.09;5092412;28;20460;-80
2023/08/20 10:05:11;;;;;;;0.20;0.20;;;;;;;27.61;54.96;99401.13;5092701;28;20105;-81
2023/08/20 10:07:39;;;;;;;0.20;0.20;;;;;;;27.33;55.61;99398.28;5092509;28;20076;-82
2023/08/20 10:10:10;;;;;;;0.20;0.20;;;;;;;27.29;55.90;99395.38;5092884;28;20101;-83
2023/08/20 10:12:39;;;;;;;0.20;0.20;;;;;;;27.59;54.63;99401.47;5074801;28;20044;-82
2023/08/20 10:15:10;;;;;;;0.20;0.20;;;;;;;27.51;54.09;99396.88;5092442;28;20100;-82
2023/08/20 10:17:38;;;;;;;0.20;0.20;;;;;;;27.36;53.40;99389.25;5092618;28;20097;-83
2023/08/20 10:20:07;;;;;;;0.20;0.20;;;;;;;27.33;52.84;99399.06;5092749;28;20504;-82
2023/08/20 10:22:39;;;;;;;0.20;0.20;;;;;;;27.12;53.58;99395.56;5092404;28;20044;-82
2023/08/20 10:25:22;;;;;;;0.20;0.20;;;;;;;27.16;53.35;99380.69;5092281;28;20452;-83
2023/08/20 10:27:50;;;;;;;0.20;0.20;;;;;;;27.17;53.50;99373.22;5092198;28;20063;-82
2023/08/20 10:30:21;;;;;;;0.20;0.20;;;;;;;27.13;54.15;99384.16;5092399;28;20131;-83
2023/08/20 10:32:52;;;;;;;0.20;0.20;;;;;;;27.07;54.57;99368.94;5092326;28;20048;-82
2023/08/20 10:35:26;;;;;;;0.20;0.20;;;;;;;26.97;54.76;99358.31;5091820;28;20052;-82
2023/08/20 10:38:07;;;;;;;0.20;0.20;;;;;;;26.88;56.60;99361.19;5092063;28;20044;-82
2023/08/20 10:40:55;;;;;;;0.20;0.20;;;;;;;26.61;56.51;99359.84;5092449;28;20132;-80
2023/08/20 10:43:25;;;;;;;0.20;0.20;;;;;;;26.28;57.05;99357.94;5091994;28;20052;-83
2023/08/20 10:46:19;;;;;;;0.20;0.20;;;;;;;26.19;58.79;99362.72;5092115;28;20518;-83
2023/08/20 10:48:51;;;;;;;0.20;0.20;;;;;;;26.11;58.82;99356.13;5087336;28;20101;-83
2023/08/20 10:51:27;;;;;;;0.20;0.20;;;;;;;26.10;58.99;99345.38;5074123;28;20054;-83
2023/08/20 10:54:01;;;;;;;0.20;0.20;;;;;;;26.10;58.55;99356.44;5092926;28;20139;-83
2023/08/20 10:56:38;;;;;;;;;;;;;;;25.94;58.91;99353.50;5076024;28;20063;-82
2023/08/20 10:59:22;;;;;;;0.20;0.20;;;;;;;25.59;59.73;99352.94;5093416;28;19924;-83
2023/08/20 11:01:51;;;;;;;0.20;0.20;;;;;;;25.51;60.35;99368.44;5057192;28;20052;-83
2023/08/20 11:04:20;;;;;;;0.20;0.20;;;;;;;25.48;61.01;99358.06;5091605;28;20506;-83
2023/08/20 11:06:51;;;;;;;0.20;0.20;;;;;;;25.46;61.19;99355.63;5091152;28;20047;-82
2023/08/20 11:09:18;;;;;;;0.20;0.20;;;;;;;25.23;61.54;99346.03;5024515;28;20383;-82
2023/08/20 11:11:47;;;;;;;0.20;0.20;;;;;;;25.12;62.65;99350.28;5091316;28;20051;-83
2023/08/20 11:14:15;;;;;;;0.20;0.20;;;;;;;25.06;63.36;99344.94;5091566;28;20051;-83
2023/08/20 11:16:44;;;;;;;0.20;0.20;;;;;;;24.97;63.67;99335.91;5091290;28;20060;-81
2023/08/20 11:19:12;;;;;;;0.20;0.20;;;;;;;25.06;63.70;99349.66;5091783;28;20109;-82
2023/08/20 11:21:42;;;;;;;0.20;0.20;;;;;;;24.98;64.38;99333.97;5091263;28;20500;-82
2023/08/20 11:24:10;;;;;;;0.20;0.20;;;;;;;24.76;65.16;99315.69;5091678;28;20514;-82
2023/08/20 11:26:42;;;;;;;0.10;0.10;;;;;;;24.78;65.29;99327.22;5091175;28;20068;-82
2023/08/20 11:29:15;;;;;;;0.20;0.20;;;;;;;24.61;67.24;99336.38;5091127;28;20142;-81
2023/08/20 11:31:43;;;;;;;0.10;0.10;;;;;;;24.06;70.68;99326.91;5072821;28;20051;-82
2023/08/20 11:34:11;;;;;;;0.20;0.20;;;;;;;23.74;70.40;99369.56;5072121;28;20048;-81
2023/08/20 11:36:39;;;;;;;0.20;0.20;;;;;;;22.79;74.10;99357.13;5072625;28;20059;-81
2023/08/20 11:39:08;;;;;;;0.20;0.20;;;;;;;21.89;69.58;99373.66;5090370;28;20096;-82
2023/08/20 11:41:39;;;;;;;0.20;0.20;;;;;;;21.42;72.07;99387.63;5091001;28;20139;-81
2023/08/20 11:44:09;;;;;;;0.20;0.20;;;;;;;20.84;73.34;99388.19;5072908;28;20093;-82
2023/08/20 11:46:44;;;;;;;0.20;0.20;;;;;;;20.31;75.99;99399.53;5090522;28;20056;-82
2023/08/20 11:49:12;;;;;;;0.20;0.20;;;;;;;20.00;78.24;99371.78;5091027;28;20052;-81
2023/08/20 11:51:58;;;;;;;0.20;0.20;;;;;;;19.83;79.02;99373.13;5091019;28;20052;-81